sensor_id;sensor_type;location;lat;lon;timestamp;pressure;altitude;pressure_sealevel;temperature;humidity
63009;BME280;49099;28.428;-16.488;2023-04-02T00:14:27;98960.13;;;21.12;55.94
63009;BME280;49099;28.428;-16.488;2023-04-02T00:16:57;98955.84;;;21.11;54.89
63009;BME280;49099;28.428;-16.488;2023-04-02T00:19:40;98952.53;;;21.05;55.35
63009;BME280;49099;28.428;-16.488;2023-04-02T00:22:20;98944.75;;;21.04;55.52
63009;BME280;49099;28.428;-16.488;2023-04-02T00:24:53;98951.59;;;21.01;55.63
63009;BME280;49099;28.428;-16.488;2023-04-02T00:27:21;98949.19;;;21.00;55.55
63009;BME280;49099;28.428;-16.488;2023-04-02T00:29:54;98935.56;;;21.05;55.63
63009;BME280;49099;28.428;-16.488;2023-04-02T00:32:32;98936.84;;;20.99;54.98
63009;BME280;49099;28.428;-16.488;2023-04-02T00:35:01;98927.94;;;21.07;54.94
63009;BME280;49099;28.428;-16.488;2023-04-02T00:37:30;98947.94;;;20.97;54.74
63009;BME280;49099;28.428;-16.488;2023-04-02T00:40:19;98921.59;;;21.03;53.57
63009;BME280;49099;28.428;-16.488;2023-04-02T00:42:51;98933.69;;;20.97;54.15
63009;BME280;49099;28.428;-16.488;2023-04-02T00:45:25;98920.53;;;20.95;53.20
63009;BME280;49099;28.428;-16.488;2023-04-02T00:47:56;98926.09;;;20.81;53.78
63009;BME280;49099;28.428;-16.488;2023-04-02T00:50:43;98920.22;;;20.88;53.58
63009;BME280;49099;28.428;-16.488;2023-04-02T00:53:22;98921.81;;;20.80;53.96
63009;BME280;49099;28.428;-16.488;2023-04-02T00:55:51;98910.88;;;20.85;54.40
63009;BME280;49099;28.428;-16.488;2023-04-02T00:58:29;98914.66;;;20.84;55.35
63009;BME280;49099;28.428;-16.488;2023-04-02T01:00:58;98915.19;;;20.78;54.22
63009;BME280;49099;28.428;-16.488;2023-04-02T01:06:03;98907.88;;;20.70;54.54
63009;BME280;49099;28.428;-16.488;2023-04-02T01:14:36;98894.41;;;20.78;53.62
63009;BME280;49099;28.428;-16.488;2023-04-02T01:17:51;98902.19;;;20.71;53.28
63009;BME280;49099;28.428;-16.488;2023-04-02T01:25:44;98883.34;;;20.63;54.27
63009;BME280;49099;28.428;-16.488;2023-04-02T01:28:19;98885.41;;;20.57;53.73
63009;BME280;49099;28.428;-16.488;2023-04-02T01:30:51;98870.03;;;20.49;53.01
63009;BME280;49099;28.428;-16.488;2023-04-02T01:33:28;98880.16;;;20.52;52.12
63009;BME280;49099;28.428;-16.488;2023-04-02T01:36:05;98874.94;;;20.55;51.98
63009;BME280;49099;28.428;-16.488;2023-04-02T01:38:40;98869.38;;;20.52;49.98
63009;BME280;49099;28.428;-16.488;2023-04-02T01:41:29;98864.31;;;20.59;48.33
63009;BME280;49099;28.428;-16.488;2023-04-02T01:44:12;98856.53;;;20.57;48.08
63009;BME280;49099;28.428;-16.488;2023-04-02T01:46:41;98866.69;;;20.52;47.07
63009;BME280;49099;28.428;-16.488;2023-04-02T01:49:15;98852.88;;;20.62;47.36
63009;BME280;49099;28.428;-16.488;2023-04-02T01:51:46;98862.53;;;20.72;49.48
63009;BME280;49099;28.428;-16.488;2023-04-02T01:54:17;98857.25;;;20.84;49.13
63009;BME280;49099;28.428;-16.488;2023-04-02T01:56:46;98855.50;;;20.88;50.12
63009;BME280;49099;28.428;-16.488;2023-04-02T01:59:19;98849.44;;;21.00;49.95
63009;BME280;49099;28.428;-16.488;2023-04-02T02:02:04;98851.19;;;20.96;50.01
63009;BME280;49099;28.428;-16.488;2023-04-02T02:04:32;98856.00;;;20.81;50.12
63009;BME280;49099;28.428;-16.488;2023-04-02T02:07:00;98849.84;;;20.72;50.45
63009;BME280;49099;28.428;-16.488;2023-04-02T02:09:31;98861.56;;;20.76;50.37
63009;BME280;49099;28.428;-16.488;2023-04-02T02:11:59;98856.00;;;20.81;49.79
63009;BME280;49099;28.428;-16.488;2023-04-02T02:14:29;98852.97;;;20.83;47.59
63009;BME280;49099;28.428;-16.488;2023-04-02T02:16:59;98850.66;;;20.73;48.92
63009;BME280;49099;28.428;-16.488;2023-04-02T02:19:37;98860.44;;;20.77;48.65
63009;BME280;49099;28.428;-16.488;2023-04-02T02:22:25;98849.66;;;20.77;46.18
63009;BME280;49099;28.428;-16.488;2023-04-02T02:24:56;98852.53;;;20.72;47.54
63009;BME280;49099;28.428;-16.488;2023-04-02T02:29:55;98845.75;;;20.66;44.46
63009;BME280;49099;28.428;-16.488;2023-04-02T02:32:27;98842.44;;;20.52;45.19
63009;BME280;49099;28.428;-16.488;2023-04-02T02:35:02;98836.75;;;20.45;48.26
63009;BME280;49099;28.428;-16.488;2023-04-02T02:37:35;98844.03;;;20.36;48.98
63009;BME280;49099;28.428;-16.488;2023-04-02T02:40:07;98841.78;;;20.38;51.09
63009;BME280;49099;28.428;-16.488;2023-04-02T02:42:41;98847.50;;;20.36;51.57
63009;BME280;49099;28.428;-16.488;2023-04-02T02:45:15;98840.69;;;20.30;52.49
63009;BME280;49099;28.428;-16.488;2023-04-02T02:47:44;98847.19;;;20.38;52.14
63009;BME280;49099;28.428;-16.488;2023-04-02T02:50:23;98850.06;;;20.33;52.70
63009;BME280;49099;28.428;-16.488;2023-04-02T02:52:54;98846.28;;;20.16;52.96
63009;BME280;49099;28.428;-16.488;2023-04-02T02:55:30;98838.03;;;20.04;53.97
63009;BME280;49099;28.428;-16.488;2023-04-02T02:58:01;98834.56;;;19.95;54.42
63009;BME280;49099;28.428;-16.488;2023-04-02T03:00:34;98829.16;;;19.95;55.64
63009;BME280;49099;28.428;-16.488;2023-04-02T03:03:05;98828.69;;;19.84;57.52
63009;BME280;49099;28.428;-16.488;2023-04-02T03:05:34;98839.28;;;19.81;57.72
63009;BME280;49099;28.428;-16.488;2023-04-02T03:08:03;98821.41;;;19.85;57.65
63009;BME280;49099;28.428;-16.488;2023-04-02T03:13:31;98834.38;;;19.91;54.68
63009;BME280;49099;28.428;-16.488;2023-04-02T03:16:27;98823.16;;;19.98;53.89
63009;BME280;49099;28.428;-16.488;2023-04-02T03:21:54;98829.63;;;20.14;52.63
63009;BME280;49099;28.428;-16.488;2023-04-02T03:26:59;98818.84;;;20.23;48.66
63009;BME280;49099;28.428;-16.488;2023-04-02T03:29:30;98822.97;;;20.20;47.16
63009;BME280;49099;28.428;-16.488;2023-04-02T03:34:42;98809.34;;;20.25;48.78
63009;BME280;49099;28.428;-16.488;2023-04-02T03:37:29;98801.09;;;20.30;48.79
63009;BME280;49099;28.428;-16.488;2023-04-02T03:40:00;98801.09;;;20.22;46.80
63009;BME280;49099;28.428;-16.488;2023-04-02T03:42:40;98789.41;;;20.09;47.45
63009;BME280;49099;28.428;-16.488;2023-04-02T03:45:20;98793.50;;;20.15;46.27
63009;BME280;49099;28.428;-16.488;2023-04-02T03:48:26;98794.16;;;20.12;45.68
63009;BME280;49099;28.428;-16.488;2023-04-02T03:53:31;98808.56;;;19.99;51.41
63009;BME280;49099;28.428;-16.488;2023-04-02T03:55:59;98801.31;;;20.08;51.70
63009;BME280;49099;28.428;-16.488;2023-04-02T03:58:39;98791.63;;;20.07;53.66
63009;BME280;49099;28.428;-16.488;2023-04-02T04:01:27;98804.16;;;20.03;54.32
63009;BME280;49099;28.428;-16.488;2023-04-02T04:04:04;98803.81;;;20.13;54.00
63009;BME280;49099;28.428;-16.488;2023-04-02T04:06:35;98795.91;;;20.08;54.32
63009;BME280;49099;28.428;-16.488;2023-04-02T04:11:51;98794.16;;;20.03;54.99
63009;BME280;49099;28.428;-16.488;2023-04-02T04:14:30;98792.75;;;19.97;54.96
63009;BME280;49099;28.428;-16.488;2023-04-02T04:17:25;98797.31;;;20.06;55.04
63009;BME280;49099;28.428;-16.488;2023-04-02T04:20:16;98779.91;;;20.03;54.87
63009;BME280;49099;28.428;-16.488;2023-04-02T04:22:49;98787.69;;;19.96;55.12
63009;BME280;49099;28.428;-16.488;2023-04-02T04:25:28;98787.03;;;19.99;55.19
63009;BME280;49099;28.428;-16.488;2023-04-02T04:30:45;98768.38;;;19.94;54.97
63009;BME280;49099;28.428;-16.488;2023-04-02T04:35:52;98774.56;;;19.86;53.86
63009;BME280;49099;28.428;-16.488;2023-04-02T04:38:50;98775.16;;;19.83;53.91
63009;BME280;49099;28.428;-16.488;2023-04-02T04:41:41;98774.06;;;19.84;53.98
63009;BME280;49099;28.428;-16.488;2023-04-02T04:44:34;98773.13;;;19.80;55.20
63009;BME280;49099;28.428;-16.488;2023-04-02T04:47:07;98777.22;;;19.68;56.05
63009;BME280;49099;28.428;-16.488;2023-04-02T04:49:52;98770.13;;;19.72;55.36
63009;BME280;49099;28.428;-16.488;2023-04-02T04:52:33;98762.81;;;19.73;54.58
63009;BME280;49099;28.428;-16.488;2023-04-02T04:55:17;98764.88;;;19.67;55.16
63009;BME280;49099;28.428;-16.488;2023-04-02T04:57:48;98762.03;;;19.64;55.74
63009;BME280;49099;28.428;-16.488;2023-04-02T05:00:42;98765.38;;;19.69;55.05
63009;BME280;49099;28.428;-16.488;2023-04-02T05:03:29;98767.09;;;19.74;54.27
63009;BME280;49099;28.428;-16.488;2023-04-02T05:06:31;98755.38;;;19.79;54.58
63009;BME280;49099;28.428;-16.488;2023-04-02T05:09:06;98767.41;;;19.72;53.05
63009;BME280;49099;28.428;-16.488;2023-04-02T05:11:42;98759.81;;;19.74;51.34
63009;BME280;49099;28.428;-16.488;2023-04-02T05:14:33;98759.66;;;19.80;51.38
63009;BME280;49099;28.428;-16.488;2023-04-02T05:17:12;98746.66;;;19.90;51.13
63009;BME280;49099;28.428;-16.488;2023-04-02T05:20:05;98753.94;;;19.90;50.86
63009;BME280;49099;28.428;-16.488;2023-04-02T05:23:16;98751.44;;;19.85;50.24
63009;BME280;49099;28.428;-16.488;2023-04-02T05:28:43;98756.66;;;19.72;50.07
63009;BME280;49099;28.428;-16.488;2023-04-02T05:31:19;98751.91;;;19.69;50.89
63009;BME280;49099;28.428;-16.488;2023-04-02T05:33:48;98746.53;;;19.69;50.85
63009;BME280;49099;28.428;-16.488;2023-04-02T05:36:22;98743.34;;;19.67;50.83
63009;BME280;49099;28.428;-16.488;2023-04-02T05:38:51;98749.53;;;19.59;52.14
63009;BME280;49099;28.428;-16.488;2023-04-02T05:41:29;98744.16;;;19.59;52.03
63009;BME280;49099;28.428;-16.488;2023-04-02T05:44:25;98743.19;;;19.55;53.38
63009;BME280;49099;28.428;-16.488;2023-04-02T05:47:01;98741.09;;;19.52;53.76
63009;BME280;49099;28.428;-16.488;2023-04-02T05:52:24;98749.50;;;19.42;54.52
63009;BME280;49099;28.428;-16.488;2023-04-02T05:57:49;98750.94;;;19.48;53.39
63009;BME280;49099;28.428;-16.488;2023-04-02T06:03:42;98752.50;;;19.49;51.21
63009;BME280;49099;28.428;-16.488;2023-04-02T06:08:57;98738.59;;;19.47;52.08
63009;BME280;49099;28.428;-16.488;2023-04-02T06:11:31;98742.69;;;19.53;52.60
63009;BME280;49099;28.428;-16.488;2023-04-02T06:14:03;98749.81;;;19.49;53.82
63009;BME280;49099;28.428;-16.488;2023-04-02T06:16:30;98729.22;;;19.36;54.55
63009;BME280;49099;28.428;-16.488;2023-04-02T06:19:00;98732.88;;;19.40;54.72
63009;BME280;49099;28.428;-16.488;2023-04-02T06:21:27;98738.41;;;19.43;53.22
63009;BME280;49099;28.428;-16.488;2023-04-02T06:23:57;98740.78;;;19.45;53.82
63009;BME280;49099;28.428;-16.488;2023-04-02T06:26:37;98722.44;;;19.47;53.45
63009;BME280;49099;28.428;-16.488;2023-04-02T06:31:54;98717.03;;;19.30;54.13
63009;BME280;49099;28.428;-16.488;2023-04-02T06:34:23;98729.22;;;19.27;54.66
63009;BME280;49099;28.428;-16.488;2023-04-02T06:36:55;98718.00;;;19.34;53.10
63009;BME280;49099;28.428;-16.488;2023-04-02T06:39:24;98721.16;;;19.36;51.87
63009;BME280;49099;28.428;-16.488;2023-04-02T06:42:20;98730.19;;;19.40;48.13
63009;BME280;49099;28.428;-16.488;2023-04-02T06:44:48;98729.09;;;19.41;48.49
63009;BME280;49099;28.428;-16.488;2023-04-02T06:50:12;98728.75;;;19.51;47.73
63009;BME280;49099;28.428;-16.488;2023-04-02T06:52:46;98742.69;;;19.36;49.53
63009;BME280;49099;28.428;-16.488;2023-04-02T06:56:05;98743.66;;;19.40;50.48
63009;BME280;49099;28.428;-16.488;2023-04-02T06:58:36;98740.16;;;19.31;50.79
63009;BME280;49099;28.428;-16.488;2023-04-02T07:01:03;98755.00;;;19.37;50.04
63009;BME280;49099;28.428;-16.488;2023-04-02T07:03:31;98760.69;;;19.27;52.08
63009;BME280;49099;28.428;-16.488;2023-04-02T07:06:00;98752.47;;;19.14;53.56
63009;BME280;49099;28.428;-16.488;2023-04-02T07:08:28;98756.25;;;19.13;55.19
63009;BME280;49099;28.428;-16.488;2023-04-02T07:10:55;98758.13;;;19.04;55.68
63009;BME280;49099;28.428;-16.488;2023-04-02T07:13:23;98758.59;;;19.06;56.28
63009;BME280;49099;28.428;-16.488;2023-04-02T07:15:52;98769.03;;;18.99;56.03
63009;BME280;49099;28.428;-16.488;2023-04-02T07:18:28;98761.44;;;18.92;56.26
63009;BME280;49099;28.428;-16.488;2023-04-02T07:20:55;98772.19;;;18.92;56.29
63009;BME280;49099;28.428;-16.488;2023-04-02T07:23:23;98768.81;;;18.87;57.28
63009;BME280;49099;28.428;-16.488;2023-04-02T07:25:53;98766.63;;;18.89;56.96
63009;BME280;49099;28.428;-16.488;2023-04-02T07:28:21;98773.56;;;18.90;56.23
63009;BME280;49099;28.428;-16.488;2023-04-02T07:30:49;98780.25;;;19.01;55.20
63009;BME280;49099;28.428;-16.488;2023-04-02T07:33:20;98802.44;;;19.15;54.23
63009;BME280;49099;28.428;-16.488;2023-04-02T07:35:48;98805.94;;;19.25;53.74
63009;BME280;49099;28.428;-16.488;2023-04-02T07:38:16;98810.44;;;19.46;54.38
63009;BME280;49099;28.428;-16.488;2023-04-02T07:40:43;98815.63;;;19.52;50.95
63009;BME280;49099;28.428;-16.488;2023-04-02T07:43:10;98832.00;;;19.64;50.13
63009;BME280;49099;28.428;-16.488;2023-04-02T07:45:37;98838.66;;;19.75;50.71
63009;BME280;49099;28.428;-16.488;2023-04-02T07:48:12;98835.50;;;19.82;51.85
63009;BME280;49099;28.428;-16.488;2023-04-02T07:50:39;98834.88;;;19.85;54.04
63009;BME280;49099;28.428;-16.488;2023-04-02T07:53:06;98838.19;;;19.82;56.04
63009;BME280;49099;28.428;-16.488;2023-04-02T07:55:34;98838.19;;;19.82;57.47
63009;BME280;49099;28.428;-16.488;2023-04-02T07:58:02;98845.63;;;19.76;57.69
63009;BME280;49099;28.428;-16.488;2023-04-02T08:00:30;98853.88;;;19.80;58.92
63009;BME280;49099;28.428;-16.488;2023-04-02T08:02:57;98849.09;;;19.76;58.63
63009;BME280;49099;28.428;-16.488;2023-04-02T08:05:25;98853.41;;;19.78;59.11
63009;BME280;49099;28.428;-16.488;2023-04-02T08:07:54;98872.38;;;19.81;58.80
63009;BME280;49099;28.428;-16.488;2023-04-02T08:10:22;98861.28;;;19.83;59.28
63009;BME280;49099;28.428;-16.488;2023-04-02T08:12:49;98860.19;;;19.84;59.58
63009;BME280;49099;28.428;-16.488;2023-04-02T08:15:17;98862.72;;;19.89;59.19
63009;BME280;49099;28.428;-16.488;2023-04-02T08:17:45;98870.66;;;19.94;58.99
63009;BME280;49099;28.428;-16.488;2023-04-02T08:20:18;98863.84;;;19.96;58.42
63009;BME280;49099;28.428;-16.488;2023-04-02T08:22:47;98868.59;;;19.99;59.16
63009;BME280;49099;28.428;-16.488;2023-04-02T08:25:15;98865.59;;;20.01;59.07
63009;BME280;49099;28.428;-16.488;2023-04-02T08:27:45;98872.91;;;20.00;58.20
63009;BME280;49099;28.428;-16.488;2023-04-02T08:30:16;98872.72;;;20.06;58.72
63009;BME280;49099;28.428;-16.488;2023-04-02T08:32:43;98873.34;;;20.02;59.11
63009;BME280;49099;28.428;-16.488;2023-04-02T08:35:12;98890.31;;;20.03;59.72
63009;BME280;49099;28.428;-16.488;2023-04-02T08:37:41;98893.78;;;19.95;59.04
63009;BME280;49099;28.428;-16.488;2023-04-02T08:43:52;98898.53;;;19.89;60.82
63009;BME280;49099;28.428;-16.488;2023-04-02T08:48:27;98893.00;;;19.94;62.24
63009;BME280;49099;28.428;-16.488;2023-04-02T08:50:57;98892.19;;;19.94;62.08
63009;BME280;49099;28.428;-16.488;2023-04-02T08:53:31;98888.53;;;19.98;62.19
63009;BME280;49099;28.428;-16.488;2023-04-02T08:56:37;98892.69;;;20.04;61.82
63009;BME280;49099;28.428;-16.488;2023-04-02T09:02:15;98897.75;;;20.15;61.03
63009;BME280;49099;28.428;-16.488;2023-04-02T09:04:48;98895.38;;;20.13;61.33
63009;BME280;49099;28.428;-16.488;2023-04-02T09:07:16;98899.19;;;20.12;62.05
63009;BME280;49099;28.428;-16.488;2023-04-02T09:09:46;98900.16;;;20.16;61.77
63009;BME280;49099;28.428;-16.488;2023-04-02T09:12:19;98901.72;;;20.17;62.78
63009;BME280;49099;28.428;-16.488;2023-04-02T09:15:30;98898.38;;;20.12;63.37
63009;BME280;49099;28.428;-16.488;2023-04-02T09:17:38;98899.81;;;20.09;64.02
63009;BME280;49099;28.428;-16.488;2023-04-02T09:20:22;98899.34;;;20.16;64.33
63009;BME280;49099;28.428;-16.488;2023-04-02T09:22:50;98910.13;;;20.16;64.06
63009;BME280;49099;28.428;-16.488;2023-04-02T09:25:23;98907.25;;;20.12;63.86
63009;BME280;49099;28.428;-16.488;2023-04-02T09:27:55;98906.78;;;20.10;64.13
63009;BME280;49099;28.428;-16.488;2023-04-02T09:32:59;98915.00;;;20.05;64.87
63009;BME280;49099;28.428;-16.488;2023-04-02T09:35:31;98919.59;;;19.96;64.57
63009;BME280;49099;28.428;-16.488;2023-04-02T09:38:18;98924.50;;;19.94;65.86
63009;BME280;49099;28.428;-16.488;2023-04-02T09:41:01;98922.28;;;19.96;65.31
63009;BME280;49099;28.428;-16.488;2023-04-02T09:43:31;98918.50;;;19.97;64.93
63009;BME280;49099;28.428;-16.488;2023-04-02T09:46:02;98916.28;;;20.08;64.46
63009;BME280;49099;28.428;-16.488;2023-04-02T09:53:44;98922.16;;;20.10;64.21
63009;BME280;49099;28.428;-16.488;2023-04-02T09:56:18;98925.00;;;20.13;63.74
63009;BME280;49099;28.428;-16.488;2023-04-02T10:01:42;98920.41;;;20.31;63.01
63009;BME280;49099;28.428;-16.488;2023-04-02T10:06:55;98927.53;;;20.27;62.97
63009;BME280;49099;28.428;-16.488;2023-04-02T10:09:29;98927.53;;;20.18;63.09
63009;BME280;49099;28.428;-16.488;2023-04-02T10:11:57;98930.22;;;20.18;63.04
63009;BME280;49099;28.428;-16.488;2023-04-02T10:14:51;98949.22;;;20.22;63.26
63009;BME280;49099;28.428;-16.488;2023-04-02T10:17:25;98949.09;;;20.36;62.79
63009;BME280;49099;28.428;-16.488;2023-04-02T10:20:02;98952.91;;;20.52;62.51
63009;BME280;49099;28.428;-16.488;2023-04-02T10:22:32;98950.72;;;20.63;61.89
63009;BME280;49099;28.428;-16.488;2023-04-02T10:25:00;98947.03;;;20.67;61.66
63009;BME280;49099;28.428;-16.488;2023-04-02T10:27:56;98945.81;;;20.56;62.25
63009;BME280;49099;28.428;-16.488;2023-04-02T10:33:06;98935.81;;;20.56;62.53
63009;BME280;49099;28.428;-16.488;2023-04-02T10:49:28;98924.03;;;20.70;62.56
63009;BME280;49099;28.428;-16.488;2023-04-02T10:52:26;98918.34;;;20.71;62.62
63009;BME280;49099;28.428;-16.488;2023-04-02T10:54:59;98917.38;;;20.76;62.84
63009;BME280;49099;28.428;-16.488;2023-04-02T10:57:36;98911.50;;;20.82;62.49
63009;BME280;49099;28.428;-16.488;2023-04-02T11:05:39;98896.41;;;20.90;62.76
63009;BME280;49099;28.428;-16.488;2023-04-02T11:08:16;98894.47;;;20.99;62.57
63009;BME280;49099;28.428;-16.488;2023-04-02T11:11:04;98895.09;;;21.05;62.50
63009;BME280;49099;28.428;-16.488;2023-04-02T11:14:09;98896.81;;;21.18;62.12
63009;BME280;49099;28.428;-16.488;2023-04-02T11:16:38;98897.41;;;21.32;61.85
63009;BME280;49099;28.428;-16.488;2023-04-02T11:24:37;98882.59;;;21.38;62.43
63009;BME280;49099;28.428;-16.488;2023-04-02T11:32:39;98888.56;;;21.53;60.86
63009;BME280;49099;28.428;-16.488;2023-04-02T11:46:03;98894.19;;;21.68;60.88
63009;BME280;49099;28.428;-16.488;2023-04-02T11:48:32;98890.97;;;21.75;60.42
63009;BME280;49099;28.428;-16.488;2023-04-02T11:53:51;98895.97;;;21.85;60.63
63009;BME280;49099;28.428;-16.488;2023-04-02T11:56:33;98892.91;;;21.95;60.10
63009;BME280;49099;28.428;-16.488;2023-04-02T12:09:56;98863.34;;;22.20;59.00
63009;BME280;49099;28.428;-16.488;2023-04-02T12:12:27;98864.13;;;22.20;59.14
63009;BME280;49099;28.428;-16.488;2023-04-02T12:14:59;98844.69;;;22.27;59.00
63009;BME280;49099;28.428;-16.488;2023-04-02T12:17:39;98854.84;;;22.30;58.84
63009;BME280;49099;28.428;-16.488;2023-04-02T12:22:45;98841.38;;;22.42;58.53
63009;BME280;49099;28.428;-16.488;2023-04-02T12:30:37;98858.03;;;22.44;58.05
63009;BME280;49099;28.428;-16.488;2023-04-02T12:33:28;98852.63;;;22.44;58.00
63009;BME280;49099;28.428;-16.488;2023-04-02T12:36:00;98846.78;;;22.55;57.36
63009;BME280;49099;28.428;-16.488;2023-04-02T12:38:30;98838.38;;;22.68;56.96
63009;BME280;49099;28.428;-16.488;2023-04-02T12:41:01;98842.22;;;22.67;56.87
63009;BME280;49099;28.428;-16.488;2023-04-02T12:43:32;98840.41;;;22.71;56.56
63009;BME280;49099;28.428;-16.488;2023-04-02T12:46:07;98834.44;;;22.66;56.58
63009;BME280;49099;28.428;-16.488;2023-04-02T12:48:35;98833.66;;;22.65;56.75
63009;BME280;49099;28.428;-16.488;2023-04-02T12:51:03;98830.63;;;22.67;56.86
63009;BME280;49099;28.428;-16.488;2023-04-02T12:56:00;98825.94;;;22.88;56.50
63009;BME280;49099;28.428;-16.488;2023-04-02T12:58:40;98826.97;;;22.96;55.82
63009;BME280;49099;28.428;-16.488;2023-04-02T13:01:16;98832.16;;;23.13;55.37
63009;BME280;49099;28.428;-16.488;2023-04-02T13:06:33;98822.22;;;23.17;55.22
63009;BME280;49099;28.428;-16.488;2023-04-02T13:09:03;98832.28;;;23.29;55.05
63009;BME280;49099;28.428;-16.488;2023-04-02T13:11:39;98828.00;;;23.28;54.64
63009;BME280;49099;28.428;-16.488;2023-04-02T13:14:16;98835.88;;;23.21;55.19
63009;BME280;49099;28.428;-16.488;2023-04-02T13:16:44;98829.81;;;23.12;55.37
63009;BME280;49099;28.428;-16.488;2023-04-02T13:19:31;98829.22;;;23.18;55.04
63009;BME280;49099;28.428;-16.488;2023-04-02T13:22:00;98829.34;;;23.22;54.72
63009;BME280;49099;28.428;-16.488;2023-04-02T13:24:30;98827.06;;;23.24;54.91
63009;BME280;49099;28.428;-16.488;2023-04-02T13:26:59;98830.22;;;23.26;55.48
63009;BME280;49099;28.428;-16.488;2023-04-02T13:29:32;98826.16;;;23.44;54.77
63009;BME280;49099;28.428;-16.488;2023-04-02T13:32:02;98814.88;;;23.54;54.03
63009;BME280;49099;28.428;-16.488;2023-04-02T13:34:29;98823.66;;;23.63;53.94
63009;BME280;49099;28.428;-16.488;2023-04-02T13:36:56;98810.81;;;23.60;53.59
63009;BME280;49099;28.428;-16.488;2023-04-02T13:39:24;98815.97;;;23.66;53.68
63009;BME280;49099;28.428;-16.488;2023-04-02T13:41:58;98810.00;;;23.72;53.57
63009;BME280;49099;28.428;-16.488;2023-04-02T13:44:28;98811.19;;;23.87;53.28
63009;BME280;49099;28.428;-16.488;2023-04-02T13:46:56;98796.19;;;23.89;53.03
63009;BME280;49099;28.428;-16.488;2023-04-02T13:49:24;98790.41;;;23.91;53.04
63009;BME280;49099;28.428;-16.488;2023-04-02T13:51:52;98798.97;;;23.93;52.83
63009;BME280;49099;28.428;-16.488;2023-04-02T13:57:00;98791.50;;;24.02;52.72
63009;BME280;49099;28.428;-16.488;2023-04-02T13:59:27;98783.06;;;24.19;51.93
63009;BME280;49099;28.428;-16.488;2023-04-02T14:02:05;98783.00;;;24.32;51.63
63009;BME280;49099;28.428;-16.488;2023-04-02T14:04:39;98774.31;;;24.26;51.79
63009;BME280;49099;28.428;-16.488;2023-04-02T14:07:39;98772.06;;;24.28;51.56
63009;BME280;49099;28.428;-16.488;2023-04-02T14:10:24;98756.47;;;24.37;51.40
63009;BME280;49099;28.428;-16.488;2023-04-02T14:22:18;98751.13;;;24.72;50.58
63009;BME280;49099;28.428;-16.488;2023-04-02T14:25:53;98744.91;;;24.88;50.07
63009;BME280;49099;28.428;-16.488;2023-04-02T14:28:04;98738.22;;;25.01;49.53
63009;BME280;49099;28.428;-16.488;2023-04-02T14:30:51;98739.09;;;25.05;49.35
63009;BME280;49099;28.428;-16.488;2023-04-02T14:36:51;98737.34;;;24.97;49.88
63009;BME280;49099;28.428;-16.488;2023-04-02T14:39:24;98738.78;;;24.91;50.77
63009;BME280;49099;28.428;-16.488;2023-04-02T14:42:02;98735.97;;;24.87;50.69
63009;BME280;49099;28.428;-16.488;2023-04-02T14:44:37;98747.00;;;24.94;50.40
63009;BME280;49099;28.428;-16.488;2023-04-02T14:47:20;98747.50;;;25.00;49.80
63009;BME280;49099;28.428;-16.488;2023-04-02T14:49:55;98745.69;;;25.04;49.50
63009;BME280;49099;28.428;-16.488;2023-04-02T14:52:24;98745.66;;;25.20;49.32
63009;BME280;49099;28.428;-16.488;2023-04-02T14:55:05;98749.19;;;25.40;48.74
63009;BME280;49099;28.428;-16.488;2023-04-02T14:57:38;98744.75;;;25.51;47.97
63009;BME280;49099;28.428;-16.488;2023-04-02T15:00:30;98755.63;;;25.51;48.46
63009;BME280;49099;28.428;-16.488;2023-04-02T15:05:51;98748.13;;;25.64;48.00
63009;BME280;49099;28.428;-16.488;2023-04-02T15:08:29;98753.63;;;25.67;47.74
63009;BME280;49099;28.428;-16.488;2023-04-02T15:13:44;98747.50;;;25.70;47.37
63009;BME280;49099;28.428;-16.488;2023-04-02T15:16:16;98744.22;;;25.80;47.56
63009;BME280;49099;28.428;-16.488;2023-04-02T15:18:49;98752.88;;;25.86;47.29
63009;BME280;49099;28.428;-16.488;2023-04-02T15:24:08;98738.31;;;26.17;46.00
63009;BME280;49099;28.428;-16.488;2023-04-02T15:27:09;98736.00;;;26.38;45.36
63009;BME280;49099;28.428;-16.488;2023-04-02T15:30:09;98726.22;;;26.37;45.85
63009;BME280;49099;28.428;-16.488;2023-04-02T15:32:39;98724.53;;;26.49;45.58
63009;BME280;49099;28.428;-16.488;2023-04-02T15:38:18;98729.19;;;26.29;45.97
63009;BME280;49099;28.428;-16.488;2023-04-02T15:41:04;98734.72;;;26.32;45.79
63009;BME280;49099;28.428;-16.488;2023-04-02T15:46:46;98729.03;;;26.64;45.06
63009;BME280;49099;28.428;-16.488;2023-04-02T15:52:02;98730.09;;;26.82;44.26
63009;BME280;49099;28.428;-16.488;2023-04-02T15:58:00;98724.00;;;26.92;44.09
63009;BME280;49099;28.428;-16.488;2023-04-02T16:09:25;98719.56;;;27.04;43.77
63009;BME280;49099;28.428;-16.488;2023-04-02T16:12:14;98717.31;;;27.09;44.24
63009;BME280;49099;28.428;-16.488;2023-04-02T16:14:46;98717.63;;;27.34;42.88
63009;BME280;49099;28.428;-16.488;2023-04-02T16:17:18;98722.50;;;27.48;42.97
63009;BME280;49099;28.428;-16.488;2023-04-02T16:19:59;98723.47;;;27.33;43.32
63009;BME280;49099;28.428;-16.488;2023-04-02T16:22:33;98723.28;;;27.48;42.95
63009;BME280;49099;28.428;-16.488;2023-04-02T16:25:19;98720.78;;;27.36;43.08
63009;BME280;49099;28.428;-16.488;2023-04-02T16:31:01;98731.66;;;27.36;43.55
63009;BME280;49099;28.428;-16.488;2023-04-02T16:42:12;98725.47;;;26.60;45.24
63009;BME280;49099;28.428;-16.488;2023-04-02T16:50:58;98715.81;;;26.40;45.66
63009;BME280;49099;28.428;-16.488;2023-04-02T17:18:33;98717.53;;;26.74;44.77
63009;BME280;49099;28.428;-16.488;2023-04-02T17:21:06;98708.97;;;26.72;45.11
63009;BME280;49099;28.428;-16.488;2023-04-02T17:23:59;98709.66;;;26.69;45.13
63009;BME280;49099;28.428;-16.488;2023-04-02T17:26:30;98712.72;;;26.64;45.26
63009;BME280;49099;28.428;-16.488;2023-04-02T17:29:00;98715.47;;;26.67;45.33
63009;BME280;49099;28.428;-16.488;2023-04-02T17:31:32;98725.66;;;26.71;44.69
63009;BME280;49099;28.428;-16.488;2023-04-02T17:34:14;98721.38;;;26.70;44.45